Adak Island, Alaska
Current Conditions -  °F | °C
As of 12:36 AM on Thursday 23 Oct 2014 (Local Time) from PADK Reporting Station
Overcast Overcast  
Wind Chill: 39°   Ceiling: 3200
Heat Index: 46°   Visibility: 10mi
Dew Point: 34°   Wind: 22mph
Humidity: 62%   Direction: 230°SW
Pressure: 30.22"   Gusts: 30mph
Location:  51.88°N, 176.65°W
Report Text: PADK 230936Z AUTO 23019G26KT 10SM OVC032 08/01 A3022 RMK AO1
Loading
Personal Weather Stations






























Interactive Weather Map
Tropical Storm Tracking
New forecast layout! Learn more

10-Day Weather Forecast

Advertisements
Track Severe Weather on mobile